M I D A S
Marine Information and Data Acquisition System
Tripno 654 of the Zeeleeuw from 2004-02-24 07:13:44 to 2004-02-24 14:12:10
Back to CruiseResearch ActivitiesStationsMapUnderway DataData graphs

EquipmentUnitsComment
TimeDGPSUTC
LatitudeDGPSDM.mWGS84
LongitudeDGPSDM.mWGS84
TemperatureSBE03/SBE38deg celciusITS90
ConductivitySBE21S/mITS90
SalinitySBE21 Practical Salinity Units
ChlorophylAChelsea fluorimeterg/lCalibrated in Aceton
Missing or incorrect values are displayed as -999
Sea surface data collected by the RV Zeeleeuw from 2004-02-24 07:13:44 to 2004-02-24 14:12:10
Time Latitude Longitude Temperature Conductivity Salinity ChlorophylA
2004-02-24 07:14:48 51°13.593 2°56.109 12.211994 4.127214 31.546747 -0.882377
2004-02-24 07:15:48 51°13.593 2°56.11 12.222786 4.12732 31.547646 -0.882377
2004-02-24 07:16:48 51°13.593 2°56.11 12.220292 4.127425 31.548545 -0.848668
2004-02-24 07:17:48 51°13.604 2°56.067 12.217299 4.12732 31.547076 -0.916087
2004-02-24 07:18:48 51°13.64 2°55.955 12.271558 4.127425 31.547975 -0.882377
2004-02-24 07:19:49 51°13.678 2°55.823 12.244502 4.127425 31.547975 -0.882377
2004-02-24 07:20:48 51°13.696 2°55.771 12.395411 4.127531 31.548874 -0.848668
2004-02-24 07:21:48 51°13.709 2°55.775 12.209182 4.127636 31.548063 -0.882377
2004-02-24 07:22:48 51°13.727 2°55.746 12.361121 4.127741 31.549532 -0.882377
2004-02-24 07:23:48 51°13.811 2°55.653 12.234348 4.127741 31.548962 -0.882377
2004-02-24 07:24:48 51°13.93 2°55.551 12.217572 4.127741 31.549532 -0.848668
2004-02-24 07:25:48 51°14.063 2°55.449 12.274911 4.127741 31.548962 -0.882377
2004-02-24 07:26:48 51°14.203 2°55.341 12.320339 4.127847 31.549291 -0.882377
2004-02-24 07:27:48 51°14.33 2°55.134 12.234121 4.127952 31.548481 -0.848668
2004-02-24 07:28:48 51°14.448 2°54.875 12.074574 4.128058 31.551089 -0.848668
2004-02-24 07:29:48 51°14.544 2°54.676 12.131583 4.128163 31.553127 -0.882377
2004-02-24 07:30:48 51°14.628 2°54.525 12.11737 4.128058 31.550519 -0.882377
2004-02-24 07:31:48 51°14.702 2°54.373 12.101245 4.128163 31.550848 -0.882377
2004-02-24 07:32:48 51°14.787 2°54.244 12.042982 4.128269 31.551747 -0.882377
2004-02-24 07:33:48 51°14.891 2°54.116 12.068393 4.128163 31.549709 -0.882377
2004-02-24 07:34:48 51°15.054 2°53.908 12.087843 4.127952 31.548481 -0.882377
2004-02-24 07:35:48 51°15.235 2°53.694 12.074438 4.128374 31.550937 -0.848668
2004-02-24 07:36:48 51°15.44 2°53.531 12.092931 4.128269 31.550608 -0.848668
2004-02-24 07:37:48 51°15.645 2°53.361 12.046074 4.12869 31.554203 -0.882377
2004-02-24 07:38:48 51°15.85 2°53.189 12.047893 4.128585 31.553304 -0.848668
2004-02-24 07:39:48 51°16.063 2°53.061 12.071666 4.128269 31.550608 -0.848668
2004-02-24 07:40:48 51°16.279 2°52.945 12.081981 4.128269 31.551177 -0.882377
2004-02-24 07:41:48 51°16.493 2°52.825 12.092477 4.128269 31.550038 -0.882377
2004-02-24 07:42:48 51°16.707 2°52.703 12.095794 4.128479 31.551836 -0.916087
2004-02-24 07:43:48 51°16.918 2°52.584 12.096157 4.128585 31.553304 -0.882377
2004-02-24 07:44:48 51°17.132 2°52.469 12.105379 4.128796 31.554532 -0.848668
2004-02-24 07:45:48 51°17.349 2°52.348 12.116734 4.128058 31.54881 -0.882377
2004-02-24 07:46:48 51°17.541 2°52.152 12.121866 4.128796 31.553962 -0.882377
2004-02-24 07:47:48 51°17.684 2°51.864 12.130766 4.128479 31.551836 -0.882377
2004-02-24 07:48:48 51°17.823 2°51.57 12.139846 4.128269 31.550608 -0.848668
2004-02-24 07:49:48 51°17.965 2°51.272 12.149698 4.12869 31.555342 -0.882377
2004-02-24 07:50:48 51°18.108 2°50.973 12.15923 4.128374 31.552646 -0.848668
2004-02-24 07:51:48 51°18.251 2°50.678 12.16758 4.128585 31.555013 -0.916087
2004-02-24 07:52:48 51°18.395 2°50.385 12.177246 4.128163 31.554267 -0.882377
2004-02-24 07:53:48 51°18.539 2°50.097 12.185277 4.128585 31.560713 -0.882377
2004-02-24 07:54:48 51°18.674 2°49.798 12.194531 4.128163 31.559397 -0.848668
2004-02-24 07:55:48 51°18.807 2°49.496 12.205553 4.12732 31.556765 -0.882377
2004-02-24 07:56:48 51°18.943 2°49.188 12.216347 4.12732 31.560186 -0.882377
2004-02-24 07:57:48 51°19.081 2°48.881 12.223874 4.126476 31.555843 -0.882377
2004-02-24 07:58:48 51°19.216 2°48.572 12.238519 4.12616 31.557707 -0.882377
2004-02-24 07:59:48 51°19.348 2°48.266 12.242689 4.125633 31.557773 -0.882377
2004-02-24 08:00:48 51°19.47 2°47.951 12.257646 4.125422 31.559397 -0.882377
2004-02-24 08:01:48 51°19.593 2°47.634 12.267661 4.12479 31.558563 -0.848668
2004-02-24 08:02:48 51°19.708 2°47.312 12.278762 4.124473 31.561 -0.882377
2004-02-24 08:03:48 51°19.806 2°46.972 12.288094 4.123314 31.555097 -0.882377
2004-02-24 08:04:48 51°19.891 2°46.625 12.297063 4.122997 31.556392 -0.882377
2004-02-24 08:05:48 51°19.961 2°46.263 12.308883 4.122259 31.555801 -0.882377
2004-02-24 08:06:48 51°20.032 2°45.901 12.319524 4.121838 31.557339 -0.882377
2004-02-24 08:07:48 51°20.103 2°45.535 12.323599 4.1211 31.558462 -0.848668
2004-02-24 08:08:48 51°20.174 2°45.171 12.336229 4.119835 31.556225 -0.882377
2004-02-24 08:09:48 51°20.227 2°44.805 12.340756 4.118886 31.557263 -0.882377
2004-02-24 08:10:48 51°20.278 2°44.442 12.35379 4.117832 31.559116 -0.848668
2004-02-24 08:11:48 51°20.324 2°44.078 12.365239 4.116356 31.557366 -0.882377
2004-02-24 08:12:48 51°20.364 2°43.712 12.368587 4.115302 31.560367 -0.882377
2004-02-24 08:13:48 51°20.385 2°43.398 12.378223 4.113299 31.557544 -0.882377
2004-02-24 08:14:48 51°20.375 2°43.245 12.387677 4.112033 31.556454 -0.882377
2004-02-24 08:15:48 51°20.361 2°43.161 12.396587 4.110347 31.555193 -0.882377
2004-02-24 08:16:48 51°20.354 2°43.108 12.404139 4.108765 31.553688 -0.848668
2004-02-24 08:17:48 51°20.401 2°42.923 12.413182 4.107184 31.553332 -0.848668
2004-02-24 08:18:48 51°20.467 2°42.575 12.416845 4.105603 31.550107 -0.882377
2004-02-24 08:19:48 51°20.532 2°42.209 12.423626 4.104337 31.549019 -0.882377
2004-02-24 08:20:48 51°20.598 2°41.84 12.433616 4.102651 31.543167 -0.848668
2004-02-24 08:21:48 51°20.653 2°41.468 12.444508 4.101596 31.54159 -0.882377
2004-02-24 08:22:48 51°20.695 2°41.096 12.445999 4.09991 31.537458 -0.848668
2004-02-24 08:23:48 51°20.734 2°40.723 12.456709 4.099066 31.537115 -0.848668
2004-02-24 08:24:48 51°20.774 2°40.352 12.463893 4.097907 31.533484 -0.882377
2004-02-24 08:25:48 51°20.803 2°39.974 12.471392 4.096852 31.530756 -0.848668
2004-02-24 08:26:48 51°20.833 2°39.596 12.481691 4.095903 31.527784 -0.882377
2004-02-24 08:27:48 51°20.863 2°39.218 12.480652 4.094955 31.525961 -0.848668
2004-02-24 08:28:48 51°20.894 2°38.841 12.489595 4.094217 31.525948 -0.848668
2004-02-24 08:29:48 51°20.923 2°38.46 12.497768 4.093373 31.52503 -0.882377
2004-02-24 08:30:48 51°20.949 2°38.077 12.504767 4.092741 31.526498 -0.882377
2004-02-24 08:31:48 51°20.965 2°37.69 12.516506 4.092108 31.525091 -0.882377
2004-02-24 08:32:48 51°20.983 2°37.303 12.522735 4.091265 31.525324 -0.882377
2004-02-24 08:33:48 51°21.001 2°36.916 12.532123 4.090421 31.523256 -0.848668
2004-02-24 08:34:48 51°21.019 2°36.528 12.531853 4.089367 31.51995 -0.916087
2004-02-24 08:35:48 51°21.037 2°36.137 12.545075 4.089051 31.522413 -0.882377
2004-02-24 08:36:48 51°21.055 2°35.747 12.545211 4.088313 31.522978 -0.916087
2004-02-24 08:37:48 51°21.117 2°35.389 12.560822 4.087891 31.522232 -0.848668
2004-02-24 08:38:48 51°21.323 2°35.258 12.569167 4.087259 31.523704 -0.882377
2004-02-24 08:39:48 51°21.54 2°35.171 12.563529 4.086099 31.521796 -0.882377
2004-02-24 08:40:48 51°21.757 2°35.095 12.577151 4.085888 31.522864 -0.848668
2004-02-24 08:41:48 51°21.977 2°35.026 12.57679 4.085045 31.520795 -0.882377
2004-02-24 08:42:48 51°22.198 2°34.961 12.599788 4.084623 31.522355 -0.882377
2004-02-24 08:43:48 51°22.42 2°34.895 12.600014 4.08378 31.517979 -0.882377
2004-02-24 08:44:48 51°22.633 2°34.765 12.612366 4.083358 31.517809 -0.848668
2004-02-24 08:45:48 51°22.829 2°34.574 12.625798 4.082831 31.518462 -0.882377
2004-02-24 08:46:48 51°22.951 2°34.271 12.623184 4.082093 31.5173 -0.848668
2004-02-24 08:47:48 51°22.997 2°33.897 12.638372 4.081882 31.516638 -0.882377
2004-02-24 08:48:48 51°23.02 2°33.513 12.642247 4.08125 31.516384 -0.882377
2004-02-24 08:49:48 51°23.035 2°33.124 12.649546 4.081039 31.519185 -0.882377
2004-02-24 08:50:48 51°23.034 2°32.73 12.6627 4.080512 31.51753 -0.848668
2004-02-24 08:51:48 51°23.032 2°32.334 12.669006 4.08009 31.51967 -0.848668
2004-02-24 08:52:48 51°23.034 2°31.937 12.670943 4.079247 31.5176 -0.848668
2004-02-24 08:53:48 51°23.034 2°31.538 12.681436 4.07872 31.518833 -0.882377
2004-02-24 08:54:48 51°23.036 2°31.137 12.690712 4.078193 31.519489 -0.848668
2004-02-24 08:55:48 51°23.033 2°30.739 12.706739 4.077455 31.518328 -0.882377
2004-02-24 08:56:48 51°22.996 2°30.344 12.706604 4.076717 31.5189 -0.882377
2004-02-24 08:57:48 51°22.961 2°29.95 12.718892 4.076401 31.518485 -0.882377
2004-02-24 08:58:48 51°22.923 2°29.559 12.722807 4.075768 31.519389 -0.848668
2004-02-24 08:59:48 51°22.888 2°29.169 12.738467 4.07503 31.519385 -0.882377
2004-02-24 09:00:48 51°22.853 2°28.778 12.7458 4.074819 31.522193 -0.848668
2004-02-24 09:01:48 51°22.816 2°28.388 12.7476 4.073765 31.521197 -0.848668
2004-02-24 09:02:48 51°22.775 2°27.997 12.749444 4.073238 31.519541 -0.882377
2004-02-24 09:03:48 51°22.735 2°27.604 12.764198 4.072184 31.515652 -0.882377
2004-02-24 09:04:48 51°22.694 2°27.212 12.773237 4.071762 31.518378 -0.882377
2004-02-24 09:05:48 51°22.663 2°26.819 12.778498 4.071235 31.520196 -0.882377
2004-02-24 09:06:48 51°22.654 2°26.426 12.785288 4.070286 31.517795 -0.882377
2004-02-24 09:07:48 51°22.695 2°26.042 12.79419 4.069759 31.517876 -0.882377
2004-02-24 09:08:48 51°22.823 2°25.729 12.802641 4.069127 31.519364 -0.848668
2004-02-24 09:09:48 51°23.01 2°25.512 12.809248 4.0686 31.521185 -0.848668
2004-02-24 09:10:48 51°23.224 2°25.416 12.816394 4.06744 31.513485 -0.882377
2004-02-24 09:11:48 51°23.443 2°25.418 12.832975 4.066597 31.514891 -0.882377
2004-02-24 09:12:48 51°23.662 2°25.436 12.843533 4.066386 31.517707 -0.848668
2004-02-24 09:13:48 51°23.875 2°25.472 12.844117 4.065859 31.51721 -0.848668
2004-02-24 09:14:48 51°24.09 2°25.497 12.857502 4.065016 31.515139 -0.848668
2004-02-24 09:15:48 51°24.301 2°25.521 12.877351 4.065016 31.518039 -0.882377
2004-02-24 09:16:48 51°24.511 2°25.546 12.887228 4.064383 31.515471 -0.882377
2004-02-24 09:17:48 51°24.722 2°25.567 12.901098 4.06375 31.514063 -0.882377
2004-02-24 09:18:48 51°24.933 2°25.59 12.917972 4.062907 31.509091 -0.882377
2004-02-24 09:19:48 51°25.143 2°25.636 12.915639 4.063118 31.513815 -0.848668
2004-02-24 09:20:48 51°25.35 2°25.684 12.90783 4.061958 31.510749 -0.882377
2004-02-24 09:21:48 51°25.559 2°25.735 12.939373 4.062064 31.5105 -0.848668
2004-02-24 09:22:48 51°25.769 2°25.782 12.971842 4.061853 31.510997 -0.882377
2004-02-24 09:23:48 51°25.977 2°25.826 12.950586 4.061642 31.514398 -0.882377
2004-02-24 09:24:48 51°26.186 2°25.87 12.964444 4.060693 31.508511 -0.848668
2004-02-24 09:25:48 51°26.395 2°25.912 12.98825 4.060799 31.512907 -0.882377
2004-02-24 09:26:48 51°26.606 2°25.959 12.994794 4.060166 31.509756 -0.848668
2004-02-24 09:27:48 51°26.815 2°26.005 12.994525 4.060166 31.512079 -0.882377
2004-02-24 09:28:48 51°27.026 2°26.053 12.999814 4.059323 31.507684 -0.848668
2004-02-24 09:29:48 51°27.235 2°26.105 13.01021 4.058796 31.507188 -0.882377
2004-02-24 09:30:48 51°27.437 2°26.18 13.004519 4.05869 31.508598 -0.882377
2004-02-24 09:31:48 51°27.637 2°26.279 13.035882 4.059112 31.515153 -0.882377
2004-02-24 09:32:48 51°27.834 2°26.393 13.034359 4.058691 31.517895 -0.882377
2004-02-24 09:33:48 51°28.032 2°26.502 13.053707 4.058163 31.513331 -0.848668
2004-02-24 09:34:48 51°28.229 2°26.607 13.056618 4.057425 31.509848 -0.882377
2004-02-24 09:35:48 51°28.428 2°26.704 13.04484 4.057109 31.50769 -0.848668
2004-02-24 09:36:48 51°28.616 2°26.789 13.072423 4.057004 31.510846 -0.882377
2004-02-24 09:37:48 51°28.752 2°26.798 13.088717 4.056477 31.511513 -0.848668
2004-02-24 09:38:48 51°28.8 2°26.786 13.101113 4.056371 31.511181 -0.882377
2004-02-24 09:39:48 51°28.799 2°26.781 13.093953 4.056371 31.516996 -0.882377
2004-02-24 09:40:48 51°28.792 2°26.769 13.120129 4.056371 31.517578 -0.882377
2004-02-24 09:41:48 51°28.782 2°26.759 13.11816 4.055423 31.512848 -0.882377
2004-02-24 09:42:48 51°28.771 2°26.751 13.126034 4.055212 31.516257 -0.882377
2004-02-24 09:43:48 51°28.759 2°26.745 13.121963 4.053947 31.51635 -0.882377
2004-02-24 09:44:48 51°28.743 2°26.742 13.139899 4.05342 31.521679 -0.848668
2004-02-24 09:45:48 51°28.737 2°26.736 13.155596 4.052787 31.523183 -0.848668
2004-02-24 09:46:48 51°28.846 2°26.623 13.170662 4.051839 31.526025 -0.882377
2004-02-24 09:47:48 51°29.01 2°26.405 13.175892 4.050785 31.527956 -0.848668
2004-02-24 09:48:48 51°29.184 2°26.214 13.180228 4.049309 31.526228 -0.882377
2004-02-24 09:49:48 51°29.371 2°26.062 13.205342 4.048465 31.528826 -0.848668
2004-02-24 09:50:48 51°29.56 2°25.922 13.206951 4.046884 31.5256 -0.882377
2004-02-24 09:51:48 51°29.749 2°25.776 13.199266 4.045408 31.518035 -0.882377
2004-02-24 09:52:48 51°29.938 2°25.629 13.209051 4.044354 31.515299 -0.848668
2004-02-24 09:53:48 51°30.124 2°25.483 13.225177 4.043511 31.512643 -0.848668
2004-02-24 09:54:48 51°30.317 2°25.383 13.256704 4.043089 31.515403 -0.882377
2004-02-24 09:55:48 51°30.512 2°25.287 13.25532 4.04214 31.51183 -0.882377
2004-02-24 09:56:48 51°30.705 2°25.19 13.236164 4.04077 31.50576 -0.882377
2004-02-24 09:57:48 51°30.901 2°25.105 13.264918 4.040348 31.506768 -0.882377
2004-02-24 09:58:48 51°31.099 2°25.049 13.261347 4.040137 31.509025 -0.882377
2004-02-24 09:59:48 51°31.294 2°25.094 13.26465 4.039505 31.5082 -0.882377
2004-02-24 10:00:48 51°31.486 2°25.164 13.296159 4.038767 31.509382 -0.882377
2004-02-24 10:01:48 51°31.681 2°25.229 13.293481 4.038134 31.502712 -0.882377
2004-02-24 10:02:48 51°31.872 2°25.307 13.321319 4.037924 31.504385 -0.882377
2004-02-24 10:03:48 51°32.059 2°25.4 13.32569 4.03708 31.502896 -0.882377
2004-02-24 10:04:48 51°32.251 2°25.492 13.304413 4.037502 31.509488 -0.882377
2004-02-24 10:05:48 51°32.434 2°25.608 13.33394 4.036342 31.502908 -0.882377
2004-02-24 10:06:48 51°32.615 2°25.736 13.344954 4.036026 31.503666 -0.882377
2004-02-24 10:07:48 51°32.795 2°25.866 13.311773 4.036237 31.510766 -0.848668
2004-02-24 10:08:48 51°32.965 2°26.022 13.350482 4.035288 31.503679 -0.848668
2004-02-24 10:09:48 51°33.137 2°26.181 13.358328 4.035288 31.506605 -0.882377
2004-02-24 10:10:48 51°33.308 2°26.34 13.361181 4.034023 31.50086 -0.882377
2004-02-24 10:11:48 51°33.481 2°26.502 13.374865 4.033918 31.501113 -0.882377
2004-02-24 10:12:48 51°33.642 2°26.684 13.381816 4.032969 31.501047 -0.882377
2004-02-24 10:13:48 51°33.796 2°26.872 13.343349 4.032969 31.505145 -0.882377
2004-02-24 10:14:48 51°33.953 2°27.06 13.347718 4.032653 31.508833 -0.916087
2004-02-24 10:15:48 51°34.114 2°27.247 13.400574 4.031493 31.495806 -0.882377
2004-02-24 10:16:48 51°34.276 2°27.431 13.395095 4.03202 31.505081 -0.882377
2004-02-24 10:17:48 51°34.441 2°27.608 13.40641 4.031704 31.505255 -0.882377
2004-02-24 10:18:48 51°34.599 2°27.793 13.427076 4.03065 31.50193 -0.882377
2004-02-24 10:19:48 51°34.755 2°27.983 13.4338 4.031599 31.507852 -0.882377
2004-02-24 10:20:48 51°34.912 2°28.165 13.432241 4.030966 31.509373 -0.882377
2004-02-24 10:21:48 51°35.068 2°28.352 13.418035 4.029596 31.498604 -0.882377
2004-02-24 10:22:48 51°35.232 2°28.533 13.428679 4.029596 31.502706 -0.882377
2004-02-24 10:23:48 51°35.391 2°28.714 13.454858 4.029491 31.504718 -0.882377
2004-02-24 10:24:48 51°35.553 2°28.886 13.462558 4.028436 31.499047 -0.848668
2004-02-24 10:25:48 51°35.717 2°29.056 13.467899 4.028753 31.510013 -0.882377
2004-02-24 10:26:48 51°35.883 2°29.234 13.485298 4.027698 31.501995 -0.882377
2004-02-24 10:27:48 51°36.05 2°29.415 13.494329 4.028436 31.509016 -0.882377
2004-02-24 10:28:48 51°36.214 2°29.591 13.436204 4.028015 31.512379 -0.882377
2004-02-24 10:29:48 51°36.375 2°29.764 13.510076 4.026961 31.503186 -0.882377
2004-02-24 10:30:48 51°36.538 2°29.937 13.522573 4.026434 31.503869 -0.848668
2004-02-24 10:31:48 51°36.696 2°30.115 13.5328 4.026328 31.502363 -0.882377
2004-02-24 10:32:48 51°36.861 2°30.286 13.533378 4.025485 31.503222 -0.848668
2004-02-24 10:33:48 51°37.024 2°30.455 13.487968 4.025801 31.50422 -0.848668
2004-02-24 10:34:48 51°37.182 2°30.636 13.546937 4.02559 31.505903 -0.848668
2004-02-24 10:35:48 51°37.345 2°30.813 13.565693 4.024747 31.505002 -0.882377
2004-02-24 10:36:48 51°37.506 2°30.993 13.524929 4.025169 31.51573 -0.882377
2004-02-24 10:37:48 51°37.665 2°31.173 13.556849 4.024325 31.505433 -0.882377
2004-02-24 10:38:48 51°37.827 2°31.344 13.560804 4.024536 31.509035 -0.848668
2004-02-24 10:39:48 51°37.987 2°31.523 13.56907 4.024009 31.509721 -0.848668
2004-02-24 10:40:48 51°38.146 2°31.706 13.602612 4.023693 31.506373 -0.882377
2004-02-24 10:41:48 51°38.306 2°31.884 13.591507 4.023377 31.507725 -0.882377
2004-02-24 10:42:48 51°38.466 2°32.067 13.515546 4.023061 31.51319 -0.848668
2004-02-24 10:43:48 51°38.626 2°32.246 13.592529 4.022428 31.50238 -0.882377
2004-02-24 10:44:48 51°38.792 2°32.415 13.618733 4.022217 31.50759 -0.882377
2004-02-24 10:45:48 51°38.955 2°32.583 13.632097 4.022217 31.511117 -0.882377
2004-02-24 10:46:48 51°39.118 2°32.759 13.568048 4.021796 31.515077 -0.882377
2004-02-24 10:47:48 51°39.282 2°32.927 13.647545 4.021268 31.508122 -0.882377
2004-02-24 10:48:48 51°39.444 2°33.101 13.627347 4.020741 31.508222 -0.882377
2004-02-24 10:49:48 51°39.611 2°33.278 13.647146 4.020952 31.511827 -0.848668
2004-02-24 10:50:48 51°39.777 2°33.447 13.628812 4.020952 31.514768 -0.848668
2004-02-24 10:51:48 51°39.944 2°33.62 13.652561 4.021058 31.517454 -0.882377
2004-02-24 10:52:48 51°40.101 2°33.8 13.706552 4.019687 31.507246 -0.882377
2004-02-24 10:53:48 51°40.266 2°33.963 13.713115 4.019582 31.503972 -0.882377
2004-02-24 10:54:48 51°40.431 2°34.133 13.673284 4.019371 31.507424 -0.916087
2004-02-24 10:55:48 51°40.6 2°34.298 13.693158 4.01916 31.511465 -0.848668
2004-02-24 10:56:48 51°40.768 2°34.468 13.651762 4.018949 31.511387 -0.848668
2004-02-24 10:57:48 51°40.933 2°34.635 13.622552 4.01916 31.515584 -0.882377
2004-02-24 10:58:48 51°41.1 2°34.805 13.687258 4.01895 31.518451 -0.882377
2004-02-24 10:59:48 51°41.269 2°34.974 13.731159 4.018739 31.516019 -0.882377
2004-02-24 11:00:48 51°41.433 2°35.147 13.732711 4.018001 31.510746 -0.848668
2004-02-24 11:01:48 51°41.605 2°35.312 13.753099 4.017895 31.512768 -0.882377
2004-02-24 11:02:48 51°41.773 2°35.477 13.754872 4.01779 31.515968 -0.882377
2004-02-24 11:03:48 51°41.938 2°35.648 13.774899 4.018001 31.517223 -0.882377
2004-02-24 11:04:48 51°42.103 2°35.816 13.740335 4.017579 31.515302 -0.882377
2004-02-24 11:05:48 51°42.266 2°35.991 13.754296 4.017157 31.512204 -0.882377
2004-02-24 11:06:48 51°42.409 2°36.203 13.762759 4.017158 31.518094 -0.882377
2004-02-24 11:07:48 51°42.5 2°36.483 13.770956 4.017052 31.51835 -0.882377
2004-02-24 11:08:48 51°42.426 2°36.79 13.764665 4.017052 31.520118 -0.848668
2004-02-24 11:09:48 51°42.263 2°37.057 13.835033 4.016525 31.516097 -0.848668
2004-02-24 11:10:48 51°42.1 2°37.329 13.816751 4.016103 31.513587 -0.882377
2004-02-24 11:11:48 51°41.977 2°37.634 13.752878 4.016631 31.522322 -0.882377
2004-02-24 11:12:48 51°41.851 2°37.93 13.777203 4.015893 31.511743 -0.882377
2004-02-24 11:13:48 51°41.721 2°38.236 13.811836 4.016103 31.51889 -0.848668
2004-02-24 11:14:48 51°41.593 2°38.543 13.79027 4.015787 31.518481 -0.848668
2004-02-24 11:15:48 51°41.467 2°38.852 13.897723 4.015366 31.520097 -0.882377
2004-02-24 11:16:48 51°41.341 2°39.151 13.821621 4.014733 31.515742 -0.882377
2004-02-24 11:17:48 51°41.204 2°39.452 13.915143 4.014733 31.51869 -0.882377
2004-02-24 11:18:48 51°41.08 2°39.756 13.811216 4.014628 31.519536 -0.882377
2004-02-24 11:19:48 51°40.952 2°40.058 13.926327 4.014522 31.519203 -0.848668
2004-02-24 11:20:48 51°40.84 2°40.37 13.926857 4.014522 31.522741 -0.882377
2004-02-24 11:21:48 51°40.725 2°40.68 13.909617 4.01389 31.524284 -0.848668
2004-02-24 11:22:48 51°40.616 2°40.99 13.930968 4.013679 31.519489 -0.848668
2004-02-24 11:23:48 51°40.497 2°41.301 13.841185 4.013679 31.523618 -0.882377
2004-02-24 11:24:48 51°40.383 2°41.61 13.914613 4.013152 31.522544 -0.848668
2004-02-24 11:25:48 51°40.275 2°41.922 13.936316 4.013047 31.526342 -0.882377
2004-02-24 11:26:48 51°40.167 2°42.228 13.963137 4.012836 31.524496 -0.848668
2004-02-24 11:27:48 51°40.056 2°42.542 13.976079 4.013152 31.526675 -0.848668
2004-02-24 11:28:48 51°39.94 2°42.858 14.0438 4.012414 31.522574 -0.882377
2004-02-24 11:29:48 51°39.824 2°43.17 13.979524 4.01252 31.524677 -0.882377
2004-02-24 11:30:48 51°39.704 2°43.485 14.059374 4.012203 31.523679 -0.882377
2004-02-24 11:31:48 51°39.595 2°43.806 14.011758 4.012414 31.524935 -0.848668
2004-02-24 11:32:48 51°39.443 2°44.095 14.010478 4.011993 31.526555 -0.848668
2004-02-24 11:33:48 51°39.273 2°44.353 14.019351 4.012098 31.525707 -0.882377
2004-02-24 11:34:48 51°39.077 2°44.572 14.06008 4.011782 31.523528 -0.882377
2004-02-24 11:35:48 51°38.863 2°44.745 14.040756 4.012414 31.533201 -0.882377
2004-02-24 11:36:48 51°38.625 2°44.804 14.072475 4.01136 31.533417 -0.882377
2004-02-24 11:37:48 51°38.427 2°44.608 14.048698 4.011255 31.527177 -0.848668
2004-02-24 11:38:49 51°38.286 2°44.288 14.063741 4.01136 31.529282 -0.848668
2004-02-24 11:39:48 51°38.189 2°43.949 14.087072 4.01136 31.531054 -0.882377
2004-02-24 11:40:48 51°38.147 2°43.578 14.141024 4.011782 31.538294 -0.916087
2004-02-24 11:41:48 51°38.135 2°43.205 14.105502 4.011044 31.535374 -0.882377
2004-02-24 11:42:48 51°38.122 2°42.838 14.142214 4.011255 31.537221 -0.916087
2004-02-24 11:43:48 51°38.106 2°42.473 14.112643 4.00999 31.532045 -0.882377
2004-02-24 11:44:48 51°38.089 2°42.104 14.179258 4.010939 31.542726 -0.882377
2004-02-24 11:45:48 51°38.119 2°41.757 14.132211 4.009463 31.533928 -0.848668
2004-02-24 11:46:48 51°38.181 2°41.415 14.139041 4.009674 31.538732 -0.882377
2004-02-24 11:47:48 51°38.206 2°41.052 14.168556 4.009779 31.542614 -0.848668
2004-02-24 11:48:48 51°38.188 2°40.678 14.175515 4.00883 31.537253 -0.882377
2004-02-24 11:49:48 51°38.08 2°40.341 14.219274 4.009779 31.546163 -0.882377
2004-02-24 11:50:48 51°37.901 2°40.092 14.197442 4.007987 31.536364 -0.882377
2004-02-24 11:51:49 51°37.679 2°39.925 14.192819 4.008514 31.54217 -0.882377
2004-02-24 11:52:48 51°37.464 2°39.777 14.236524 4.007987 31.542873 -0.882377
2004-02-24 11:53:48 51°37.251 2°39.624 14.199159 4.007249 31.536992 -0.882377
2004-02-24 11:54:48 51°37.036 2°39.464 14.255 4.007566 31.546278 -0.882377
2004-02-24 11:55:48 51°36.819 2°39.291 14.254209 4.006722 31.542431 -0.848668
2004-02-24 11:56:48 51°36.601 2°39.119 14.218614 4.006406 31.542025 -0.848668
2004-02-24 11:57:48 51°36.379 2°38.97 14.215974 4.005668 31.540287 -0.882377
2004-02-24 11:58:48 51°36.15 2°38.843 14.260894 4.005668 31.542656 -0.882377
2004-02-24 11:59:48 51°35.917 2°38.729 14.245983 4.004614 31.538142 -0.882377
2004-02-24 12:00:48 51°35.686 2°38.621 14.225787 4.003771 31.537255 -0.882377
2004-02-24 12:01:48 51°35.45 2°38.586 14.246599 4.003665 31.54107 -0.882377
2004-02-24 12:02:48 51°35.236 2°38.752 14.24805 4.003349 31.541256 -0.882377
2004-02-24 12:03:48 51°35.03 2°38.944 14.295807 4.003033 31.540257 -0.916087
2004-02-24 12:04:48 51°34.827 2°39.139 14.263313 4.002295 31.539704 -0.848668
2004-02-24 12:05:48 51°34.627 2°39.347 14.311279 4.001768 31.535075 -0.848668
2004-02-24 12:06:48 51°34.43 2°39.556 14.297478 4.00103 31.534522 -0.848668
2004-02-24 12:07:48 51°34.232 2°39.758 14.300511 4.000398 31.532523 -0.882377
2004-02-24 12:08:48 51°34.028 2°39.951 14.270702 4.000292 31.533969 -0.882377
2004-02-24 12:09:48 51°33.796 2°40.076 14.261906 3.999976 31.538307 -0.882377
2004-02-24 12:10:48 51°33.55 2°40.1 14.288334 3.99966 31.535528 -0.848668
2004-02-24 12:11:48 51°33.3 2°40.047 14.286267 3.999133 31.532676 -0.916087
2004-02-24 12:12:48 51°33.051 2°39.994 14.304906 3.998606 31.531603 -0.882377
2004-02-24 12:13:48 51°32.805 2°39.921 14.298137 3.998184 31.530863 -0.848668
2004-02-24 12:14:48 51°32.562 2°39.836 14.313784 3.997868 31.530457 -0.848668
2004-02-24 12:15:48 51°32.318 2°39.756 14.352008 3.998079 31.535277 -0.882377
2004-02-24 12:16:48 51°32.073 2°39.679 14.355258 3.997868 31.537578 -0.916087
2004-02-24 12:17:48 51°31.828 2°39.599 14.381298 3.99713 31.534058 -0.848668
2004-02-24 12:18:48 51°31.586 2°39.521 14.38424 3.997446 31.540401 -0.848668
2004-02-24 12:19:48 51°31.341 2°39.442 14.371858 3.996181 31.533434 -0.848668
2004-02-24 12:20:48 51°31.095 2°39.361 14.389244 3.996603 31.540705 -0.882377
2004-02-24 12:21:48 51°30.849 2°39.282 14.354643 3.995338 31.533736 -0.882377
2004-02-24 12:22:48 51°30.605 2°39.202 14.355214 3.995127 31.537228 -0.848668
2004-02-24 12:23:48 51°30.378 2°39.057 14.385557 3.994811 31.538605 -0.848668
2004-02-24 12:24:48 51°30.159 2°38.881 14.421283 3.994811 31.540388 -0.882377
2004-02-24 12:25:48 51°29.959 2°38.667 14.370365 3.993546 31.534605 -0.848668
2004-02-24 12:26:48 51°29.772 2°38.439 14.384371 3.993546 31.537577 -0.882377
2004-02-24 12:27:48 51°29.596 2°38.185 14.361407 3.992808 31.535244 -0.882377
2004-02-24 12:28:48 51°29.419 2°37.929 14.390034 3.992387 31.538072 -0.882377
2004-02-24 12:29:48 51°29.243 2°37.675 14.389508 3.992176 31.538 -0.882377
2004-02-24 12:30:48 51°29.064 2°37.421 14.422511 3.991543 31.538379 -0.882377
2004-02-24 12:31:49 51°28.883 2°37.163 14.394644 3.991122 31.54002 -0.882377
2004-02-24 12:32:48 51°28.683 2°36.985 14.436858 3.9907 31.541662 -0.882377
2004-02-24 12:33:49 51°28.441 2°36.91 14.43405 3.990173 31.541186 -0.848668
2004-02-24 12:34:48 51°28.202 2°36.926 14.421941 3.98933 31.540304 -0.848668
2004-02-24 12:35:48 51°27.963 2°36.982 14.480185 3.988381 31.536708 -0.848668
2004-02-24 12:36:48 51°27.731 2°37.069 14.404124 3.988276 31.540543 -0.848668
2004-02-24 12:37:48 51°27.504 2°37.193 14.372078 3.987749 31.540067 -0.882377
2004-02-24 12:38:48 51°27.286 2°37.353 14.450674 3.987011 31.536541 -0.848668
2004-02-24 12:39:48 51°27.073 2°37.52 14.396575 3.986589 31.538185 -0.882377
2004-02-24 12:40:48 51°26.855 2°37.671 14.479264 3.986484 31.534277 -0.882377
2004-02-24 12:41:49 51°26.638 2°37.839 14.423126 3.985324 31.529416 -0.882377
2004-02-24 12:42:48 51°26.419 2°37.988 14.47922 3.985113 31.534111 -0.848668
2004-02-24 12:43:48 51°26.201 2°38.144 14.48996 3.98427 31.524887 -0.882377
2004-02-24 12:44:49 51°25.98 2°38.303 14.479834 3.984375 31.528796 -0.848668
2004-02-24 12:45:48 51°25.767 2°38.459 14.467339 3.984481 31.533897 -0.882377
2004-02-24 12:46:48 51°25.557 2°38.632 14.484963 3.983532 31.529702 -0.882377
2004-02-24 12:47:48 51°25.345 2°38.802 14.453437 3.983321 31.531419 -0.882377
2004-02-24 12:48:48 51°25.122 2°38.932 14.483867 3.983005 31.529225 -0.882377
2004-02-24 12:49:48 51°24.901 2°39.059 14.498989 3.983532 31.53626 -0.882377
2004-02-24 12:50:48 51°24.681 2°39.191 14.523222 3.982794 31.533328 -0.916087
2004-02-24 12:51:48 51°24.454 2°39.314 14.514283 3.982162 31.529536 -0.882377
2004-02-24 12:52:48 51°24.225 2°39.389 14.482245 3.981424 31.533761 -0.848668
2004-02-24 12:53:48 51°23.992 2°39.407 14.571616 3.981951 31.53722 -0.882377
2004-02-24 12:54:48 51°23.759 2°39.405 14.524886 3.981635 31.536815 -0.882377
2004-02-24 12:55:48 51°23.536 2°39.31 14.535181 3.980792 31.531758 -0.882377
2004-02-24 12:56:48 51°23.326 2°39.167 14.577001 3.980792 31.536533 -0.882377
2004-02-24 12:57:48 51°23.129 2°38.992 14.578533 3.980054 31.532406 -0.848668
2004-02-24 12:58:48 51°22.935 2°38.815 14.560145 3.979421 31.531596 -0.848668
2004-02-24 12:59:48 51°22.736 2°38.663 14.584136 3.979949 31.54043 -0.848668
2004-02-24 13:00:48 51°22.522 2°38.558 14.568376 3.978789 31.536759 -0.848668
2004-02-24 13:01:48 51°22.296 2°38.535 14.571134 3.979211 31.54347 -0.882377
2004-02-24 13:02:48 51°22.07 2°38.597 14.554496 3.978473 31.539939 -0.848668
2004-02-24 13:03:48 51°21.851 2°38.717 14.588031 3.97763 31.539061 -0.848668
2004-02-24 13:04:48 51°21.64 2°38.874 14.53575 3.97647 31.528816 -0.882377
2004-02-24 13:05:48 51°21.427 2°39.036 14.602343 3.976365 31.532665 -0.882377
2004-02-24 13:06:48 51°21.237 2°39.258 14.56356 3.976365 31.538044 -0.848668
2004-02-24 13:07:48 51°21.07 2°39.52 14.558831 3.975732 31.53604 -0.882377
2004-02-24 13:08:48 51°20.931 2°39.824 14.500523 3.974994 31.535497 -0.882377
2004-02-24 13:09:48 51°20.826 2°40.163 14.600155 3.974889 31.536359 -0.882377
2004-02-24 13:10:48 51°20.728 2°40.506 14.541401 3.974573 31.534161 -0.882377
2004-02-24 13:11:48 51°20.635 2°40.864 14.575512 3.973729 31.532685 -0.882377
2004-02-24 13:12:48 51°20.545 2°41.219 14.60138 3.973202 31.529221 -0.882377
2004-02-24 13:13:48 51°20.462 2°41.588 14.612932 3.973202 31.534006 -0.848668
2004-02-24 13:14:48 51°20.366 2°41.946 14.612407 3.97257 31.529609 -0.848668
2004-02-24 13:15:48 51°20.273 2°42.312 14.604749 3.972675 31.534729 -0.882377
2004-02-24 13:16:48 51°20.185 2°42.681 14.643902 3.972465 31.532864 -0.882377
2004-02-24 13:17:48 51°20.095 2°43.039 14.601817 3.971938 31.531792 -0.882377
2004-02-24 13:18:48 51°20.011 2°43.388 14.648538 3.971832 31.530261 -0.848668
2004-02-24 13:19:48 51°19.925 2°43.738 14.597398 3.972043 31.53452 -0.882377
2004-02-24 13:20:48 51°19.842 2°44.09 14.619538 3.971411 31.53072 -0.848668
2004-02-24 13:21:48 51°19.758 2°44.445 14.63896 3.971305 31.532182 -0.882377
2004-02-24 13:22:48 51°19.676 2°44.802 14.661481 3.971094 31.531514 -0.882377
2004-02-24 13:23:48 51°19.596 2°45.157 14.610919 3.971094 31.532711 -0.882377
2004-02-24 13:24:48 51°19.508 2°45.524 14.669875 3.971094 31.532711 -0.916087
2004-02-24 13:25:48 51°19.425 2°45.898 14.624482 3.970884 31.535036 -0.848668
2004-02-24 13:26:49 51°19.347 2°46.268 14.652561 3.970356 31.530971 -0.916087
2004-02-24 13:27:48 51°19.272 2°46.621 14.678967 3.970462 31.5337 -0.882377
2004-02-24 13:28:48 51°19.198 2°46.981 14.638085 3.970462 31.536694 -0.848668
2004-02-24 13:29:48 51°19.11 2°47.337 14.648013 3.970357 31.53636 -0.882377
2004-02-24 13:30:49 51°19.027 2°47.705 14.656103 3.97004 31.534759 -0.848668
2004-02-24 13:31:48 51°18.94 2°48.053 14.648538 3.97004 31.533561 -0.882377
2004-02-24 13:32:48 51°18.837 2°48.4 14.640097 3.96983 31.537684 -0.882377
2004-02-24 13:33:48 51°18.734 2°48.753 14.651424 3.969197 31.532684 -0.882377
2004-02-24 13:34:48 51°18.636 2°49.11 14.658464 3.969513 31.536083 -0.882377
2004-02-24 13:35:48 51°18.538 2°49.467 14.628769 3.969513 31.53788 -0.882377
2004-02-24 13:36:48 51°18.441 2°49.832 14.619976 3.968986 31.53621 -0.916087
2004-02-24 13:37:48 51°18.348 2°50.19 14.581641 3.968881 31.539471 -0.882377
2004-02-24 13:38:48 51°18.259 2°50.547 14.701518 3.96867 31.538803 -0.882377
2004-02-24 13:39:48 51°18.154 2°50.889 14.607944 3.96867 31.537604 -0.882377
2004-02-24 13:40:48 51°18.026 2°51.217 14.676388 3.968354 31.5378 -0.882377
2004-02-24 13:41:48 51°17.899 2°51.548 14.683775 3.968565 31.539068 -0.882377
2004-02-24 13:42:48 51°17.766 2°51.866 14.681633 3.968248 31.537466 -0.848668
2004-02-24 13:43:48 51°17.608 2°52.142 14.677088 3.968565 31.544463 -0.882377
2004-02-24 13:44:48 51°17.441 2°52.392 14.674946 3.967932 31.538262 -0.882377
2004-02-24 13:45:49 51°17.241 2°52.57 14.680541 3.967616 31.539658 -0.882377
2004-02-24 13:46:48 51°17.046 2°52.739 14.655141 3.967932 31.544858 -0.882377
2004-02-24 13:47:49 51°16.848 2°52.917 14.684037 3.967405 31.540189 -0.882377
2004-02-24 13:48:48 51°16.65 2°53.078 14.725896 3.967932 31.547257 -0.882377
2004-02-24 13:49:49 51°16.437 2°53.206 14.698022 3.9673 31.544653 -0.882377
2004-02-24 13:50:48 51°16.234 2°53.331 14.740091 3.966773 31.542982 -0.916087
2004-02-24 13:51:48 51°16.029 2°53.467 14.735898 3.966878 31.542716 -0.882377
2004-02-24 13:52:48 51°15.823 2°53.598 14.742886 3.966562 31.545314 -0.882377
2004-02-24 13:53:48 51°15.62 2°53.735 14.729609 3.966457 31.54738 -0.882377
2004-02-24 13:54:48 51°15.462 2°53.852 14.748693 3.965719 31.543241 -0.848668
2004-02-24 13:55:48 51°15.296 2°53.979 14.710737 3.965192 31.54217 -0.848668
2004-02-24 13:56:49 51°15.091 2°54.109 14.741663 3.965403 31.54584 -0.848668
2004-02-24 13:57:48 51°14.896 2°54.255 14.761137 3.964454 31.544033 -0.814958
2004-02-24 13:58:48 51°14.694 2°54.405 14.689064 3.964138 31.544832 -0.814958
2004-02-24 13:59:49 51°14.53 2°54.661 14.638785 3.964349 31.549704 -0.882377
2004-02-24 14:00:48 51°14.398 2°54.975 14.715674 3.963822 31.542028 -0.882377
2004-02-24 14:01:48 51°14.271 2°55.247 14.701256 3.9634 31.541892 -0.882377
2004-02-24 14:02:49 51°14.152 2°55.401 14.728735 3.9634 31.545495 -0.882377
2004-02-24 14:03:49 51°14.037 2°55.489 14.740746 3.963084 31.545694 -0.882377
2004-02-24 14:04:48 51°13.932 2°55.568 14.738038 3.962768 31.545893 -0.916087
2004-02-24 14:05:48 51°13.826 2°55.646 14.746204 3.962557 31.547027 -0.882377
2004-02-24 14:06:48 51°13.737 2°55.739 14.749348 3.962346 31.548762 -0.882377
2004-02-24 14:07:48 51°13.672 2°55.866 14.75664 3.962135 31.548094 -0.882377
2004-02-24 14:08:48 51°13.626 2°55.991 14.76201 3.961924 31.548027 -0.882377
2004-02-24 14:09:48 51°13.597 2°56.088 14.766594 3.961608 31.547625 -0.848668
2004-02-24 14:10:48 51°13.592 2°56.105 14.774669 3.961397 31.547558 -0.882377
2004-02-24 14:11:48 51°13.593 2°56.106 14.776721 3.961187 31.546889 -0.848668